Time;durP1;ratioP1;P1;durP2;ratioP2;P2;SDS_P1;SDS_P2;PMS_P1;PMS_P2;Temp;Humidity;BMP_temperature;BMP_pressure;BME280_temperature;BME280_humidity;BME280_pressure;Samples;Min_cycle;Max_cycle;Signal;HPM_P1;HPM_P2
2020/11/26 00:08:39;;;;;;;40.6;27.7;;;;;;;-3.19;86.58203;99375.11;;;;
2020/11/26 00:18:36;;;;;;;37.6;25.8;;;;;;;-3.15;86.80664;99378.98;;;;
2020/11/26 00:28:34;;;;;;;33.3;22.1;;;;;;;-3.26;86.43457;99381.38;;;;
2020/11/26 00:38:31;;;;;;;33.5;23.8;;;;;;;-3.34;86.54883;99378.95;;;;
2020/11/26 00:48:28;;;;;;;41;29.4;;;;;;;-3.29;87.18066;99385.23;;;;
2020/11/26 00:58:25;;;;;;;39.3;26.6;;;;;;;-3.25;87.35156;99381.2;;;;
2020/11/26 01:08:22;;;;;;;48.5;23.9;;;;;;;-3.26;86.62012;99373.47;;;;
2020/11/26 01:18:19;;;;;;;34.9;25.7;;;;;;;-3.32;86.81543;99383;;;;
2020/11/26 01:28:17;;;;;;;30.7;21;;;;;;;-3.46;86.55762;99378.7;;;;
2020/11/26 01:38:14;;;;;;;33.7;21.2;;;;;;;-3.64;86.26953;99378.42;;;;
2020/11/26 01:48:11;;;;;;;31.3;19.7;;;;;;;-3.8;86.12793;99373.5;;;;
2020/11/26 01:58:08;;;;;;;27.4;19.5;;;;;;;-3.97;85.45313;99378.29;;;;
2020/11/26 02:08:05;;;;;;;33.1;21.7;;;;;;;-4.21;85.66699;99371.69;;;;
2020/11/26 02:18:02;;;;;;;48.3;28.7;;;;;;;-3.94;88.16602;99366.55;;;;
2020/11/26 02:28:02;;;;;;;36.8;25.7;;;;;;;-3.89;87.53613;99364.97;;;;
2020/11/26 02:37:56;;;;;;;33.3;22.2;;;;;;;-3.94;86.81836;99370;;;;
2020/11/26 02:47:53;;;;;;;38.9;23.3;;;;;;;-3.98;87.09375;99363.49;;;;
2020/11/26 02:57:50;;;;;;;48.5;26.4;;;;;;;-4.01;87.1709;99363.07;;;;
2020/11/26 03:07:47;;;;;;;42.8;31.5;;;;;;;-4.15;87.26465;99368.27;;;;
2020/11/26 03:17:44;;;;;;;44.7;28.3;;;;;;;-3.91;87.58496;99368.78;;;;
2020/11/26 03:27:41;;;;;;;42.6;29.2;;;;;;;-3.73;87.41504;99362;;;;
2020/11/26 03:37:38;;;;;;;41.6;30.3;;;;;;;-3.69;87.18652;99373.77;;;;
2020/11/26 03:47:36;;;;;;;29.4;22.8;;;;;;;-3.8;86.49902;99384.86;;;;
2020/11/26 03:57:33;;;;;;;37.7;25.9;;;;;;;-3.89;86.63379;99388.67;;;;
2020/11/26 04:07:30;;;;;;;51.9;27.5;;;;;;;-3.85;86.64063;99384.61;;;;
2020/11/26 04:17:27;;;;;;;37.1;25.3;;;;;;;-3.8;86.62793;99376.14;;;;
2020/11/26 04:27:24;;;;;;;31.5;24;;;;;;;-3.66;86.64648;99383.09;;;;
2020/11/26 04:37:21;;;;;;;36.9;23.5;;;;;;;-3.46;86.37305;99368.16;;;;
2020/11/26 04:47:18;;;;;;;35.3;26.9;;;;;;;-3.45;85.80664;99374.24;;;;
2020/11/26 04:57:15;;;;;;;33.5;27.7;;;;;;;-3.55;85.24414;99379.89;;;;
2020/11/26 05:07:12;;;;;;;44.9;27.2;;;;;;;-3.63;85.69629;99378.23;;;;
2020/11/26 05:17:09;;;;;;;40.2;24.4;;;;;;;-3.67;85.57813;99384.09;;;;
2020/11/26 05:27:06;;;;;;;34.5;20.8;;;;;;;-3.68;85.83789;99398.29;;;;
2020/11/26 05:37:16;;;;;;;34.7;18.5;;;;;;;-3.62;85.81738;99416.75;;;;
2020/11/26 05:47:07;;;;;;;37.6;22.8;;;;;;;-3.52;85.68555;99415.56;;;;
2020/11/26 05:56:58;;;;;;;30.4;18.8;;;;;;;-3.52;85.82715;99420.83;;;;
2020/11/26 06:06:55;;;;;;;34.6;21.2;;;;;;;-3.55;85.32031;99411.51;;;;
2020/11/26 06:16:52;;;;;;;33.4;22.6;;;;;;;-3.62;85.23926;99405.39;;;;
2020/11/26 06:26:49;;;;;;;39.1;18.7;;;;;;;-3.62;85.27148;99426.47;;;;
2020/11/26 06:36:46;;;;;;;43.9;23.7;;;;;;;-3.47;85.49805;99439.52;;;;
2020/11/26 06:46:43;;;;;;;40;23.7;;;;;;;-3.38;85.00488;99430.41;;;;
2020/11/26 06:56:40;;;;;;;35.9;23;;;;;;;-3.25;84.61719;99428.64;;;;
2020/11/26 07:06:38;;;;;;;38.2;27.4;;;;;;;-3.19;84.32617;99435.74;;;;
2020/11/26 07:16:35;;;;;;;31.9;20.6;;;;;;;-3.17;83.9707;99433.74;;;;
2020/11/26 07:26:32;;;;;;;32.1;24;;;;;;;-3.05;84.16797;99434.77;;;;
2020/11/26 07:36:29;;;;;;;42.5;25.8;;;;;;;-2.93;83.70898;99431.56;;;;
2020/11/26 07:46:26;;;;;;;42.5;25.3;;;;;;;-2.75;83.61523;99421.25;;;;
2020/11/26 07:56:24;;;;;;;36.9;24.2;;;;;;;-2.5;82.91309;99422.28;;;;
2020/11/26 08:06:21;;;;;;;37.2;25.4;;;;;;;-2.32;82.47559;99421.64;;;;
2020/11/26 08:16:18;;;;;;;32.5;20.6;;;;;;;-2.1;82.55176;99417.78;;;;
2020/11/26 08:26:15;;;;;;;30.9;22.5;;;;;;;-1.73;82.25098;99410.98;;;;
2020/11/26 08:36:13;;;;;;;32.5;23.3;;;;;;;-1.43;81.19238;99406.83;;;;
2020/11/26 08:46:10;;;;;;;35.8;24.5;;;;;;;-1.2;79.82227;99404.47;;;;
2020/11/26 08:56:08;;;;;;;36.3;25.1;;;;;;;-0.89;79.96777;99416.9;;;;
2020/11/26 09:06:05;;;;;;;44.5;25;;;;;;;-0.67;78.81445;99415.54;;;;
2020/11/26 09:16:04;;;;;;;35.2;23.5;;;;;;;-0.55;78.23145;99413.8;;;;
2020/11/26 09:26:02;;;;;;;42.8;28;;;;;;;-0.33;77.94043;99414.25;;;;
2020/11/26 09:35:58;;;;;;;39.1;23.8;;;;;;;-0.14;79.03125;99391.27;;;;
2020/11/26 09:45:55;;;;;;;38.7;24.7;;;;;;;0.22;76.85254;99388.64;;;;
2020/11/26 09:55:53;;;;;;;29.2;21.6;;;;;;;0.54;76.53418;99375.21;;;;
2020/11/26 10:05:50;;;;;;;32;21.3;;;;;;;0.67;74.51758;99367.89;;;;
2020/11/26 10:15:48;;;;;;;38.2;25.3;;;;;;;0.83;74.93262;99366.47;;;;
2020/11/26 10:25:46;;;;;;;35.6;26.3;;;;;;;1.1;75.00098;99375.67;;;;
2020/11/26 10:35:43;;;;;;;34.6;23.9;;;;;;;1.13;74.12305;99377.05;;;;
2020/11/26 10:45:41;;;;;;;34.7;25.2;;;;;;;1.46;72.77539;99377.34;;;;
2020/11/26 10:55:39;;;;;;;37.1;27.4;;;;;;;1.7;71.22266;99362.25;;;;
2020/11/26 11:05:37;;;;;;;31.7;23.8;;;;;;;1.66;71.22852;99343.31;;;;
2020/11/26 11:15:34;;;;;;;37.7;26.5;;;;;;;1.77;70.63672;99341.69;;;;
2020/11/26 11:25:32;;;;;;;42.4;28.3;;;;;;;1.86;69.87598;99327.81;;;;
2020/11/26 11:35:30;;;;;;;29.7;20.2;;;;;;;2.15;69.125;99330.55;;;;
2020/11/26 11:45:30;;;;;;;26.8;23.9;;;;;;;2.22;68.40527;99326.69;;;;
2020/11/26 11:55:25;;;;;;;32.3;21.3;;;;;;;2.53;68.02148;99325.46;;;;
2020/11/26 12:05:23;;;;;;;40.3;25.4;;;;;;;2.5;66.87305;99321.4;;;;
2020/11/26 12:15:21;;;;;;;31.4;21.9;;;;;;;2.62;67.82422;99325.88;;;;
2020/11/26 12:25:19;;;;;;;30.5;22;;;;;;;2.65;66.81738;99312.09;;;;
2020/11/26 12:35:17;;;;;;;22.7;17.7;;;;;;;2.68;66.24609;99312.42;;;;
2020/11/26 12:45:15;;;;;;;33.6;23.1;;;;;;;2.59;66.16504;99303.22;;;;
2020/11/26 12:55:13;;;;;;;20.3;18.2;;;;;;;2.63;65.94824;99276.94;;;;
2020/11/26 13:05:11;;;;;;;29.8;20.7;;;;;;;2.52;65.69824;99267.97;;;;
2020/11/26 13:15:09;;;;;;;27.9;20.4;;;;;;;2.51;66.20801;99271.66;;;;
2020/11/26 13:25:06;;;;;;;32.8;21.2;;;;;;;2.39;67.22266;99261.09;;;;
2020/11/26 13:35:04;;;;;;;41.6;26.2;;;;;;;2.24;69.31641;99270.63;;;;
2020/11/26 13:45:03;;;;;;;36.8;26.7;;;;;;;1.94;70.3877;99260.98;;;;
2020/11/26 13:55:03;;;;;;;37.2;28.7;;;;;;;1.77;71.41211;99260.09;;;;
2020/11/26 14:04:58;;;;;;;31.2;22.8;;;;;;;1.58;71.79004;99271.92;;;;
2020/11/26 14:14:56;;;;;;;33.8;23.2;;;;;;;1.3;72.79395;99248.72;;;;
2020/11/26 14:24:53;;;;;;;45.5;25.8;;;;;;;1.05;73.83301;99269.36;;;;
2020/11/26 14:34:51;;;;;;;43.5;26.1;;;;;;;0.68;74.85059;99270.56;;;;
2020/11/26 14:44:49;;;;;;;45.8;27.4;;;;;;;0.41;76.05078;99273.61;;;;
2020/11/26 14:54:46;;;;;;;42.6;25.5;;;;;;;0.13;76.76953;99283.96;;;;
2020/11/26 15:04:44;;;;;;;45.1;30.9;;;;;;;-0.28;77.34375;99275.89;;;;
2020/11/26 15:14:42;;;;;;;56.8;33.9;;;;;;;-0.56;78.98633;99279.03;;;;
2020/11/26 15:24:39;;;;;;;48;33;;;;;;;-0.77;80.0459;99280.24;;;;
2020/11/26 15:34:37;;;;;;;43.4;27;;;;;;;-0.93;81.41992;99267.54;;;;
2020/11/26 15:44:34;;;;;;;51.3;34.1;;;;;;;-1.18;82.11523;99279.97;;;;
2020/11/26 15:54:32;;;;;;;51.2;32.5;;;;;;;-1.38;81.99121;99261.58;;;;
2020/11/26 16:04:29;;;;;;;45.3;31.6;;;;;;;-1.46;82.52246;99271.63;;;;
2020/11/26 16:14:26;;;;;;;60.9;39.7;;;;;;;-1.53;83.60449;99267.16;;;;
2020/11/26 16:24:24;;;;;;;59;33.3;;;;;;;-1.68;83.02734;99271.13;;;;
2020/11/26 16:34:21;;;;;;;47.5;35;;;;;;;-1.87;83.9082;99264.1;;;;
2020/11/26 16:44:19;;;;;;;48.6;33.7;;;;;;;-1.75;84.73145;99267.72;;;;
2020/11/26 16:54:16;;;;;;;50.9;38.4;;;;;;;-1.8;84.45801;99275.45;;;;
2020/11/26 17:04:15;;;;;;;93.7;46.4;;;;;;;-1.8;85.36719;99281.55;;;;
2020/11/26 17:14:11;;;;;;;69.4;41.1;;;;;;;-1.96;84.15234;99275.94;;;;
2020/11/26 17:24:08;;;;;;;67;42;;;;;;;-2.02;84.98145;99282.06;;;;
2020/11/26 17:34:05;;;;;;;52.1;39.5;;;;;;;-2.1;85.39355;99281.28;;;;
2020/11/26 17:44:03;;;;;;;91.6;55.2;;;;;;;-2.1;85.88574;99289.2;;;;
2020/11/26 17:54:04;;;;;;;73.4;44.7;;;;;;;-2.08;86.4043;99289.79;;;;
2020/11/26 18:03:58;;;;;;;75.1;47.7;;;;;;;-2.15;85.66895;99291.64;;;;
2020/11/26 18:13:58;;;;;;;79.5;52.3;;;;;;;-2.18;86.1416;99297.34;;;;
2020/11/26 18:23:52;;;;;;;74.3;54.4;;;;;;;-2.29;85.94531;99299.83;;;;
2020/11/26 18:33:50;;;;;;;78.5;45.7;;;;;;;-2.37;86.09082;99300.05;;;;
2020/11/26 18:43:47;;;;;;;64.6;45.8;;;;;;;-2.35;86.88281;99309.38;;;;
2020/11/26 18:53:44;;;;;;;89.6;55.2;;;;;;;-2.39;86.88379;99310.8;;;;
2020/11/26 19:03:42;;;;;;;78.9;48.8;;;;;;;-2.46;86.72949;99296.8;;;;
2020/11/26 19:13:39;;;;;;;68.2;46.5;;;;;;;-2.46;87.58008;99286.25;;;;
2020/11/26 19:23:36;;;;;;;64.8;44.3;;;;;;;-2.41;87.60059;99294.38;;;;
2020/11/26 19:33:33;;;;;;;65.3;46.3;;;;;;;-2.42;87.28223;99308.58;;;;
2020/11/26 19:43:31;;;;;;;80.3;50.3;;;;;;;-2.44;87.24609;99321.18;;;;
2020/11/26 19:53:28;;;;;;;75.2;47.4;;;;;;;-2.4;87.44043;99319.75;;;;
2020/11/26 20:03:25;;;;;;;77.1;52.2;;;;;;;-2.38;87.26758;99322.17;;;;
2020/11/26 20:13:22;;;;;;;60.1;40.8;;;;;;;-2.27;87.61914;99332.1;;;;
2020/11/26 20:23:20;;;;;;;68.7;47.5;;;;;;;-2.17;87.45605;99338.58;;;;
2020/11/26 20:33:17;;;;;;;83.7;49;;;;;;;-2.05;87.35742;99346.69;;;;
2020/11/26 20:43:14;;;;;;;98;50.3;;;;;;;-2.04;87.39453;99349.09;;;;
2020/11/26 20:53:11;;;;;;;55.4;44.5;;;;;;;-2.17;86.95313;99328.02;;;;
2020/11/26 21:03:09;;;;;;;61.3;41;;;;;;;-2.1;86.88965;99349.13;;;;
2020/11/26 21:13:06;;;;;;;69.8;37.5;;;;;;;-2.1;86.54102;99336.73;;;;
2020/11/26 21:23:04;;;;;;;67.4;44.7;;;;;;;-2.02;86.45801;99343.63;;;;
2020/11/26 21:33:04;;;;;;;71;48.1;;;;;;;-1.89;86.41895;99345.4;;;;
2020/11/26 21:42:58;;;;;;;76.5;40.3;;;;;;;-1.89;86.375;99333.01;;;;
2020/11/26 21:52:55;;;;;;;65.8;39.3;;;;;;;-1.84;86.15625;99319.18;;;;
2020/11/26 22:02:53;;;;;;;73.8;42.5;;;;;;;-1.96;86.0127;99319.02;;;;
2020/11/26 22:12:50;;;;;;;68.3;43.9;;;;;;;-2.02;86.19434;99319.04;;;;
2020/11/26 22:22:48;;;;;;;65.9;38.3;;;;;;;-2.1;86.13672;99320.89;;;;
2020/11/26 22:32:45;;;;;;;66.4;39.4;;;;;;;-2.19;86.55469;99310.77;;;;
2020/11/26 22:42:42;;;;;;;60.1;44;;;;;;;-2.25;85.93066;99306.3;;;;
2020/11/26 22:52:39;;;;;;;74.2;46.7;;;;;;;-2.34;85.92383;99291.71;;;;
2020/11/26 23:02:36;;;;;;;71.6;47.3;;;;;;;-2.3;85.95508;99280.55;;;;
2020/11/26 23:12:34;;;;;;;67.5;43.8;;;;;;;-2.09;85.84375;99287.38;;;;
2020/11/26 23:22:31;;;;;;;65;46;;;;;;;-1.83;84.86816;99283.8;;;;
2020/11/26 23:32:29;;;;;;;77.7;49.9;;;;;;;-1.59;83.96484;99267.2;;;;
2020/11/26 23:42:26;;;;;;;89.5;57.1;;;;;;;-1.42;83.53809;99256.95;;;;
2020/11/26 23:52:23;;;;;;;76.2;55.3;;;;;;;-1.31;82.34375;99254.42;;;;
